Milwaukee, Wisconsin
Traffic Map
Current Weather Conditions
Milwaukee, Wisconsin
Overcast Haze
Overcast
37°
Feels Like: 32°
Wind Chill: 32° Ceiling: 300
Heat Index: 37° Visibility: 2mi
Dew Point: 34° Wind: 6mph
Humidity: 89% Direction: 150° (SSE)
Pressure: 29.9in Gusts: 0mph
Raw Report DataKMKE 192052Z 15005KT 2SM BR OVC003 03/01 A2990 RMK AO2 SLP133 T00280011 58006
Traffic Incident Summary
Active as of:
Severity:
Category:
InformationThere was an issue retrieving the traffic information for this location. Please try a different location or try again shortly.
Advertisements
Track Severe Weather on mobile